createdAt,value
2019-03-27T00:00:13.859Z,20.03
2019-03-27T00:04:22.364Z,19.63
2019-03-27T00:08:30.813Z,16.50
2019-03-27T00:12:39.290Z,24.70
2019-03-27T00:16:48.040Z,18.83
2019-03-27T00:20:56.524Z,18.53
2019-03-27T00:25:07.315Z,27.60
2019-03-27T00:29:15.778Z,17.97
2019-03-27T00:33:24.333Z,15.93
2019-03-27T00:37:33.042Z,33.57
2019-03-27T00:41:41.790Z,27.03
2019-03-27T00:45:50.239Z,19.70
2019-03-27T00:49:58.727Z,22.93
2019-03-27T00:54:07.278Z,28.00
2019-03-27T00:58:15.756Z,28.37
2019-03-27T01:02:24.226Z,28.93
2019-03-27T01:06:32.716Z,25.47
2019-03-27T01:10:41.214Z,16.70
2019-03-27T01:14:49.705Z,22.43
2019-03-27T01:18:58.225Z,30.17
2019-03-27T01:23:06.786Z,22.40
2019-03-27T01:27:15.285Z,38.10
2019-03-27T01:31:24.015Z,29.60
2019-03-27T01:35:32.496Z,33.17
2019-03-27T01:39:41.048Z,25.33
2019-03-27T01:43:49.755Z,28.10
2019-03-27T01:47:58.234Z,21.37
2019-03-27T01:52:08.115Z,26.27
2019-03-27T01:56:16.745Z,24.30
2019-03-27T02:00:25.233Z,26.10
2019-03-27T02:04:33.722Z,27.67
2019-03-27T02:08:42.195Z,34.33
2019-03-27T02:12:50.712Z,25.33
2019-03-27T02:16:59.202Z,30.20
2019-03-27T02:21:07.947Z,32.17
2019-03-27T02:25:16.734Z,29.67
2019-03-27T02:29:25.206Z,22.23
2019-03-27T02:33:33.721Z,25.53
2019-03-27T02:37:42.160Z,23.07
2019-03-27T02:41:50.638Z,25.40
2019-03-27T02:45:59.210Z,23.93
2019-03-27T02:50:08.045Z,26.93
2019-03-27T02:54:16.579Z,27.57
2019-03-27T02:58:25.078Z,27.00
2019-03-27T03:02:33.598Z,31.73
2019-03-27T03:06:42.071Z,24.17
2019-03-27T03:10:50.727Z,20.77
2019-03-27T03:14:59.424Z,22.20
2019-03-27T03:19:07.901Z,28.87
2019-03-27T03:23:16.439Z,28.17
2019-03-27T03:27:24.926Z,28.07
2019-03-27T03:31:33.720Z,23.93
2019-03-27T03:35:42.530Z,27.53
2019-03-27T03:39:51.878Z,27.00
2019-03-27T03:44:00.358Z,32.83
2019-03-27T03:48:08.845Z,22.13
2019-03-27T03:52:19.539Z,25.43
2019-03-27T03:56:29.431Z,26.87
2019-03-27T04:00:38.597Z,20.37
2019-03-27T04:04:48.073Z,30.13
2019-03-27T04:08:56.606Z,24.97
2019-03-27T04:13:05.115Z,28.73
2019-03-27T04:17:17.345Z,20.37
2019-03-27T04:21:26.987Z,25.40
2019-03-27T04:26:06.455Z,42.23
2019-03-27T04:29:44.274Z,35.40
2019-03-27T04:33:52.778Z,27.00
2019-03-27T04:38:01.272Z,28.30
2019-03-27T04:42:09.817Z,25.90
2019-03-27T04:46:18.275Z,23.17
2019-03-27T04:50:26.750Z,25.10
2019-03-27T04:54:35.192Z,27.47
2019-03-27T04:58:43.662Z,38.50
2019-03-27T05:02:52.138Z,24.90
2019-03-27T05:07:00.882Z,27.50
2019-03-27T05:11:09.578Z,26.53
2019-03-27T05:15:18.315Z,23.07
2019-03-27T05:19:27.127Z,22.10
2019-03-27T05:23:35.633Z,24.13
2019-03-27T05:27:44.383Z,20.90
2019-03-27T05:31:52.864Z,28.83
2019-03-27T05:36:01.335Z,29.40
2019-03-27T05:40:10.074Z,28.90
2019-03-27T05:44:18.622Z,32.20
2019-03-27T05:48:27.103Z,33.47
2019-03-27T05:52:35.898Z,27.53
2019-03-27T05:56:44.369Z,19.30
2019-03-27T06:00:52.901Z,32.13
2019-03-27T06:05:01.376Z,31.43
2019-03-27T06:09:09.866Z,29.13
2019-03-27T06:13:18.303Z,34.03
2019-03-27T06:17:26.801Z,38.97
2019-03-27T06:21:35.344Z,33.03
2019-03-27T06:25:43.843Z,40.80
2019-03-27T06:29:52.566Z,38.80
2019-03-27T06:34:01.196Z,40.73
2019-03-27T06:38:09.699Z,33.67
2019-03-27T06:42:18.483Z,35.53
2019-03-27T06:46:26.962Z,33.60
2019-03-27T06:50:35.437Z,29.03
2019-03-27T06:54:43.886Z,40.20
2019-03-27T06:58:54.861Z,41.80
2019-03-27T07:03:02.905Z,34.70
2019-03-27T07:07:11.660Z,41.30
2019-03-27T07:11:20.401Z,42.00
2019-03-27T07:15:35.776Z,28.07
2019-03-27T07:19:43.907Z,31.77
2019-03-27T07:23:52.707Z,41.83
2019-03-27T07:28:01.226Z,39.47
2019-03-27T07:32:09.727Z,40.07
2019-03-27T07:36:18.462Z,43.10
2019-03-27T07:40:26.937Z,48.97
2019-03-27T07:44:35.677Z,38.77
2019-03-27T07:48:53.675Z,49.47
2019-03-27T07:52:54.415Z,43.60
2019-03-27T07:57:03.153Z,34.30
2019-03-27T08:01:11.893Z,36.10
2019-03-27T08:05:20.365Z,47.80
2019-03-27T08:09:28.827Z,38.83
2019-03-27T08:13:37.290Z,35.57
2019-03-27T08:17:45.778Z,38.57
2019-03-27T08:21:54.211Z,31.97
2019-03-27T08:26:03.081Z,40.27
2019-03-27T08:30:13.638Z,28.70
2019-03-27T08:34:22.121Z,33.43
2019-03-27T08:38:30.579Z,23.00
2019-03-27T08:42:39.417Z,26.00
2019-03-27T08:46:47.967Z,25.13
2019-03-27T08:50:56.462Z,28.47
2019-03-27T08:55:07.945Z,18.93
2019-03-27T08:59:16.412Z,25.33
2019-03-27T09:03:25.221Z,17.57
2019-03-27T09:07:33.777Z,19.03
2019-03-27T09:11:42.661Z,24.10
2019-03-27T09:15:51.098Z,16.13
2019-03-27T09:19:59.561Z,20.50
2019-03-27T09:24:08.036Z,18.03
2019-03-27T09:28:16.466Z,13.33
2019-03-27T09:32:25.298Z,13.17
2019-03-27T09:36:33.806Z,12.30
2019-03-27T09:40:42.290Z,16.60
2019-03-27T09:44:50.787Z,19.60
2019-03-27T09:48:59.345Z,15.73
2019-03-27T09:53:07.823Z,10.87
2019-03-27T09:57:16.558Z,13.37
2019-03-27T10:01:25.037Z,10.03
2019-03-27T10:05:33.506Z,14.67
2019-03-27T10:09:41.950Z,8.73
2019-03-27T10:13:50.797Z,6.37
2019-03-27T10:17:59.326Z,19.43
2019-03-27T10:22:07.870Z,7.27
2019-03-27T10:26:16.462Z,12.00
2019-03-27T10:30:24.953Z,10.60
2019-03-27T10:34:33.524Z,7.87
2019-03-27T10:38:42.197Z,8.00
2019-03-27T10:42:50.750Z,11.60
2019-03-27T10:46:59.233Z,10.20
2019-03-27T10:51:07.702Z,5.63
2019-03-27T10:55:16.230Z,11.23
2019-03-27T10:59:24.702Z,6.37
2019-03-27T11:03:33.526Z,9.50
2019-03-27T11:07:41.994Z,12.67
2019-03-27T11:11:50.462Z,12.43
2019-03-27T11:15:58.943Z,9.40
2019-03-27T11:20:08.060Z,5.50
2019-03-27T11:24:16.778Z,9.53
2019-03-27T11:28:25.263Z,8.23
2019-03-27T11:32:33.776Z,8.80
2019-03-27T11:36:42.564Z,8.43
2019-03-27T11:40:51.034Z,8.70
2019-03-27T11:44:59.505Z,8.83
2019-03-27T11:49:07.966Z,7.57
2019-03-27T11:53:16.457Z,8.27
2019-03-27T11:57:24.949Z,15.63
2019-03-27T12:01:39.628Z,9.30
2019-03-27T12:05:45.684Z,8.30
2019-03-27T12:09:53.788Z,5.10
2019-03-27T12:14:02.285Z,9.70
2019-03-27T12:18:11.962Z,8.40
2019-03-27T12:22:20.683Z,12.70
2019-03-27T12:26:29.166Z,9.33
2019-03-27T12:30:37.893Z,13.93
2019-03-27T12:34:46.382Z,9.40
2019-03-27T12:38:55.179Z,10.90
2019-03-27T12:43:03.663Z,11.83
2019-03-27T12:47:12.214Z,8.05
2019-03-27T12:51:20.991Z,9.60
2019-03-27T12:55:29.565Z,8.20
2019-03-27T12:59:38.047Z,11.97
2019-03-27T13:03:46.515Z,7.33
2019-03-27T13:07:54.989Z,17.80
2019-03-27T13:12:03.652Z,11.83
2019-03-27T13:16:12.395Z,12.30
2019-03-27T13:20:21.090Z,6.70
2019-03-27T13:24:29.563Z,6.33
2019-03-27T13:28:48.137Z,8.73
2019-03-27T13:32:48.490Z,8.33
2019-03-27T13:36:57.046Z,7.53
2019-03-27T13:41:05.512Z,6.57
2019-03-27T13:45:14.696Z,13.67
2019-03-27T13:49:23.164Z,9.77
2019-03-27T13:53:31.642Z,10.67
2019-03-27T13:57:40.410Z,9.30
2019-03-27T14:01:49.211Z,8.33
2019-03-27T14:05:57.935Z,12.27
2019-03-27T14:10:08.030Z,9.90
2019-03-27T14:14:16.507Z,8.13
2019-03-27T14:18:24.970Z,10.90
2019-03-27T14:22:33.442Z,8.03
2019-03-27T14:26:45.470Z,7.53
2019-03-27T14:30:56.641Z,6.30
2019-03-27T14:35:05.223Z,8.73
2019-03-27T14:39:13.693Z,12.00
2019-03-27T14:43:22.488Z,7.50
2019-03-27T14:47:30.982Z,8.63
2019-03-27T14:51:39.423Z,8.80
2019-03-27T14:55:47.887Z,16.33
2019-03-27T14:59:56.371Z,8.05
2019-03-27T15:04:04.912Z,15.57
2019-03-27T15:08:13.357Z,14.10
2019-03-27T15:12:21.837Z,20.43
2019-03-27T15:16:30.474Z,17.50
2019-03-27T15:20:39.313Z,10.10
2019-03-27T15:24:47.785Z,7.40
2019-03-27T15:28:56.494Z,7.30
2019-03-27T15:33:24.314Z,8.87
2019-03-27T15:37:33.016Z,10.23
2019-03-27T15:41:41.491Z,10.17
2019-03-27T15:45:50.194Z,9.43
2019-03-27T15:49:58.658Z,9.07
2019-03-27T15:54:07.138Z,10.90
2019-03-27T15:58:15.627Z,11.60
2019-03-27T16:02:24.062Z,13.63
2019-03-27T16:06:32.548Z,8.20
2019-03-27T16:10:41.059Z,14.37
2019-03-27T16:14:49.535Z,8.87
2019-03-27T16:18:57.981Z,14.97
2019-03-27T16:23:06.713Z,11.33
2019-03-27T16:27:15.210Z,7.67
2019-03-27T16:31:23.926Z,8.63
2019-03-27T16:35:32.406Z,9.97
2019-03-27T16:39:41.107Z,8.43
2019-03-27T16:43:49.590Z,11.23
2019-03-27T16:47:58.045Z,8.53
2019-03-27T16:52:06.585Z,12.17
2019-03-27T16:56:15.064Z,10.73
2019-03-27T17:00:23.537Z,10.90
2019-03-27T17:04:32.092Z,10.93
2019-03-27T17:08:40.573Z,9.50
2019-03-27T17:12:49.275Z,12.00
2019-03-27T17:16:57.742Z,9.10
2019-03-27T17:21:06.528Z,13.90
2019-03-27T17:25:14.999Z,11.87
2019-03-27T17:29:23.450Z,12.30
2019-03-27T17:33:31.930Z,14.20
2019-03-27T17:37:40.418Z,11.20
2019-03-27T17:41:48.861Z,9.63
2019-03-27T17:45:57.318Z,9.30
2019-03-27T17:50:07.335Z,9.60
2019-03-27T17:54:20.643Z,11.10
2019-03-27T17:58:26.259Z,14.70
2019-03-27T18:02:34.723Z,8.90
2019-03-27T18:06:43.194Z,10.13
2019-03-27T18:10:51.674Z,14.40
2019-03-27T18:15:00.350Z,19.43
2019-03-27T18:19:08.914Z,15.37
2019-03-27T18:23:17.389Z,13.72
2019-03-27T18:27:25.867Z,12.47
2019-03-27T18:31:34.317Z,12.03
2019-03-27T18:35:42.872Z,9.13
2019-03-27T18:39:51.377Z,12.40
2019-03-27T18:44:02.981Z,10.57
2019-03-27T18:48:10.024Z,14.00
2019-03-27T18:52:18.471Z,12.17
2019-03-27T18:56:26.976Z,10.47
2019-03-27T19:00:35.450Z,13.70
2019-03-27T19:04:44.214Z,16.03
2019-03-27T19:08:52.694Z,15.50
2019-03-27T19:13:01.433Z,17.63
2019-03-27T19:17:10.097Z,15.83
2019-03-27T19:21:18.855Z,16.47
2019-03-27T19:25:27.309Z,17.73
2019-03-27T19:29:36.127Z,20.53
2019-03-27T19:33:44.933Z,20.05
2019-03-27T19:37:53.679Z,29.53
2019-03-27T19:42:02.419Z,21.30
2019-03-27T19:46:10.887Z,27.20
2019-03-27T19:50:19.336Z,18.00
2019-03-27T19:54:28.086Z,14.50
2019-03-27T19:58:36.811Z,16.30
2019-03-27T20:02:45.546Z,18.57
2019-03-27T20:06:54.004Z,16.70
2019-03-27T20:11:02.469Z,15.37
2019-03-27T20:15:12.817Z,17.93
2019-03-27T20:19:21.805Z,21.33
2019-03-27T20:23:30.544Z,15.97
2019-03-27T20:27:39.059Z,14.10
2019-03-27T20:31:47.599Z,13.50
2019-03-27T20:35:56.091Z,19.57
2019-03-27T20:40:27.633Z,14.20
2019-03-27T20:44:35.678Z,14.37
2019-03-27T20:48:44.167Z,17.13
2019-03-27T20:52:52.674Z,13.40
2019-03-27T20:57:01.152Z,17.30
2019-03-27T21:01:09.967Z,19.40
2019-03-27T21:05:18.435Z,15.77
2019-03-27T21:09:26.897Z,17.80
2019-03-27T21:13:35.376Z,16.97
2019-03-27T21:17:43.842Z,18.10
2019-03-27T21:21:52.588Z,22.20
2019-03-27T21:26:01.082Z,17.53
2019-03-27T21:30:11.173Z,19.37
2019-03-27T21:34:19.737Z,13.80
2019-03-27T21:38:28.232Z,17.00
2019-03-27T21:42:37.047Z,13.70
2019-03-27T21:46:45.530Z,16.60
2019-03-27T21:50:54.238Z,15.87
2019-03-27T21:55:02.787Z,18.73
2019-03-27T21:59:11.528Z,15.53
2019-03-27T22:03:19.999Z,16.80
2019-03-27T22:07:28.744Z,16.13
2019-03-27T22:11:37.228Z,21.00
2019-03-27T22:15:45.667Z,16.40
2019-03-27T22:19:54.146Z,14.23
2019-03-27T22:24:02.881Z,15.00
2019-03-27T22:28:11.419Z,15.87
2019-03-27T22:32:20.114Z,17.90
2019-03-27T22:36:28.573Z,15.53
2019-03-27T22:40:37.049Z,13.80
2019-03-27T22:44:45.530Z,12.10
2019-03-27T22:48:54.019Z,14.50
2019-03-27T22:53:02.734Z,17.27
2019-03-27T22:57:11.225Z,17.80
2019-03-27T23:01:20.048Z,17.80
2019-03-27T23:05:30.193Z,12.60
2019-03-27T23:09:38.722Z,9.87
2019-03-27T23:13:47.206Z,15.90
2019-03-27T23:17:55.684Z,13.00
2019-03-27T23:22:04.170Z,11.13
2019-03-27T23:26:12.650Z,10.23
2019-03-27T23:30:21.123Z,13.87
2019-03-27T23:34:29.910Z,17.53
2019-03-27T23:38:38.386Z,11.43
2019-03-27T23:42:49.832Z,13.37
2019-03-27T23:46:58.296Z,10.93
2019-03-27T23:51:06.774Z,10.30
2019-03-27T23:55:15.519Z,12.50
2019-03-27T23:59:23.959Z,15.43
